Latest Weather Observations for Esperance Airport

IDW60801

Issued at 11:32 pm WST Tuesday 9 February 2016 (issued every 30 minutes, with the page automatically refreshed every 10 minutes)

About weather observations | Map of weather stations | Latest weather observations for WA | Other Formats
Station Details ID: 009542 Name: ESPERANCE AERO Lat: -33.68 Lon: 121.83 Height: 142.0 m
Data from the previous 72 hours. | See also: Recent months at Esperance Airport
Date/Time
WST
Temp
°C
App
Temp
°C
Dew
Point
Rel
Hum
%
Delta-T
°C
Wind Press
QNH
hPa
Press
MSL
hPa
Rain
since 9 am
mm
Dir
 
Spd
km/h
Gust
km/h
Spd
kts
Gust
kts
09/11:30pm 23.7 20.6 11.7 47 6.8 NNE 19 28 10 15 1015.6 1015.1 0.0
09/11:00pm 23.7 21.2 12.4 49 6.5 NNE 17 24 9 13 1015.8 1015.3 0.0
09/10:30pm 24.4 21.9 12.4 47 6.9 NE 17 24 9 13 1016.0 1015.5 0.0
09/10:00pm 24.7 22.7 12.6 47 7.0 NE 15 24 8 13 1016.2 1015.7 0.0
09/09:30pm 25.1 22.3 12.7 46 7.2 ENE 19 28 10 15 1016.3 1015.8 0.0
09/09:00pm 25.1 22.1 10.6 40 8.1 ENE 17 28 9 15 1016.5 1015.9 0.0
09/08:30pm 25.1 21.5 9.8 38 8.5 ENE 19 26 10 14 1016.5 1015.9 0.0
09/08:00pm 25.9 22.7 10.1 37 8.8 E 17 22 9 12 1016.3 1015.8 0.0
09/07:30pm 25.9 22.7 11.3 40 8.3 E 19 24 10 13 1016.1 1015.6 0.0
09/07:00pm 26.6 23.4 11.9 40 8.5 ESE 20 24 11 13 1016.1 1015.6 0.0
09/06:30pm 29.1 25.9 11.2 33 10.3 SE 19 24 10 13 1015.9 1015.4 0.0
09/06:00pm 30.9 27.4 10.8 29 11.6 SE 20 24 11 13 1015.7 1015.2 0.0
09/05:30pm 31.6 27.4 9.8 26 12.4 SSE 22 28 12 15 1015.7 1015.2 0.0
09/05:00pm 32.5 28.2 9.3 24 13.2 SSE 22 28 12 15 1015.4 1014.9 0.0
09/04:30pm 33.2 29.2 10.5 25 13.2 SSE 22 30 12 16 1015.3 1014.8 0.0
09/04:00pm 34.4 29.6 10.3 23 14.0 SE 26 32 14 17 1015.2 1014.7 0.0
09/03:30pm 35.8 30.5 8.6 19 15.5 SSE 26 32 14 17 1015.0 1014.5 0.0
09/03:00pm 37.5 31.7 4.4 13 17.9 SSE 24 32 13 17 1015.1 1014.6 0.0
09/02:42pm 37.5 32.3 5.5 14 17.6 SSE 22 39 12 21 1015.0 1014.5 0.0
09/02:30pm 37.4 32.9 2.0 11 18.4 SE 15 26 8 14 1015.0 1014.5 0.0
09/02:00pm 38.3 34.5 3.9 12 18.5 S 13 20 7 11 1015.2 1014.7 0.0
09/01:30pm 37.2 34.4 5.3 14 17.4 SSE 9 20 5 11 1015.5 1015.0 0.0
09/01:00pm 36.7 34.1 5.9 15 16.9 SSE 9 15 5 8 1015.9 1015.4 0.0
09/12:30pm 37.0 33.6 6.1 15 17.1 NW 13 22 7 12 1016.2 1015.7 0.0
09/12:00pm 35.0 32.4 6.3 17 15.7 NNE 9 15 5 8 1016.7 1016.1 0.0
09/11:30am 34.6 31.6 7.6 19 15.1 NW 13 19 7 10 1017.2 1016.6 0.0
09/11:00am 35.2 32.3 8.1 19 15.3 NNW 13 22 7 12 1017.5 1016.9 0.0
09/10:30am 32.7 30.5 10.7 26 12.8 NNW 13 20 7 11 1018.0 1017.4 0.0
09/10:00am 32.1 29.7 11.3 28 12.2 NNW 15 22 8 12 1018.4 1017.8 0.0
09/09:30am 30.5 28.0 12.4 33 10.7 NNW 17 22 9 12 1018.5 1017.9 0.0
09/09:00am 28.1 25.7 12.5 38 9.1 N 17 28 9 15 1018.7 1018.2 0.0
09/08:30am 25.4 21.8 12.9 45 7.3 N 24 33 13 18 1018.9 1018.4 0.0
09/08:00am 23.3 19.1 13.5 54 5.7 N 28 35 15 19 1018.9 1018.4 0.0
09/07:30am 20.9 17.0 13.4 62 4.3 NNE 26 33 14 18 1019.0 1018.5 0.0
09/07:00am 18.9 14.7 13.5 71 3.1 N 28 35 15 19 1019.1 1018.6 0.0
09/06:30am 17.1 13.5 13.0 77 2.3 NNE 24 33 13 18 1019.0 1018.5 0.0
09/06:00am 16.0 12.7 12.9 82 1.7 NNE 22 32 12 17 1019.0 1018.5 0.0
09/05:30am 15.6 12.6 12.7 83 1.6 NNE 20 28 11 15 1018.9 1018.4 0.0
09/05:00am 15.8 12.9 12.9 83 1.6 NNE 20 28 11 15 1018.6 1018.1 0.0
09/04:30am 15.7 12.8 12.8 83 1.6 NNE 20 28 11 15 1018.5 1017.9 0.0
09/04:00am 15.9 13.5 12.8 82 1.7 NNE 17 24 9 13 1018.7 1018.2 0.0
09/03:30am 16.0 13.6 12.7 81 1.8 NNE 17 24 9 13 1018.9 1018.4 0.0
09/03:00am 16.3 13.6 12.8 80 1.9 NNE 19 26 10 14 1018.9 1018.4 0.0
09/02:30am 16.5 13.6 12.8 79 2.1 NNE 20 28 11 15 1019.0 1018.5 0.0
09/02:00am 16.7 13.8 12.8 78 2.2 NNE 20 30 11 16 1019.1 1018.6 0.0
09/01:30am 16.9 14.2 12.8 77 2.3 NNE 19 28 10 15 1019.3 1018.8 0.0
09/01:00am 17.0 14.2 12.5 75 2.5 NNE 19 30 10 16 1019.4 1018.9 0.0
09/12:30am 17.5 14.5 12.6 73 2.7 NNE 20 26 11 14 1019.8 1019.3 0.0
09/12:00am 17.9 15.5 12.6 71 3.0 NE 17 24 9 13 1020.0 1019.5 0.0
 
Date/Time
WST
Temp
°C
App
Temp
°C
Dew
Point
Rel
Hum
%
Delta-T
°C
Wind Press
QNH
hPa
Press
MSL
hPa
Rain
since 9 am
mm
Dir
 
Spd
km/h
Gust
km/h
Spd
kts
Gust
kts
08/11:30pm 18.3 15.9 12.7 70 3.2 NE 17 26 9 14 1020.1 1019.6 0.0
08/11:00pm 18.7 16.4 12.9 69 3.3 NE 17 24 9 13 1020.2 1019.7 0.0
08/10:30pm 19.2 17.3 12.9 67 3.6 ENE 15 24 8 13 1020.5 1020.0 0.0
08/10:00pm 19.9 18.0 13.1 65 3.9 ENE 15 22 8 12 1020.3 1019.8 0.0
08/09:30pm 20.8 18.0 13.3 62 4.3 ENE 20 28 11 15 1020.5 1020.0 0.0
08/09:00pm 21.7 18.9 13.1 58 4.9 ENE 20 32 11 17 1020.4 1019.9 0.0
08/08:30pm 22.5 19.6 13.0 55 5.5 ENE 20 33 11 18 1020.2 1019.7 0.0
08/08:00pm 23.3 20.2 13.5 54 5.7 E 22 32 12 17 1019.9 1019.4 0.0
08/07:30pm 24.3 20.8 13.5 51 6.3 E 24 33 13 18 1019.8 1019.3 0.0
08/07:00pm 22.9 20.7 15.0 61 4.7 ESE 20 24 11 13 1019.5 1019.0 0.0
08/06:30pm 25.0 22.4 15.0 53 6.0 SE 22 30 12 16 1019.1 1018.6 0.0
08/06:00pm 26.6 23.4 15.3 50 6.9 SE 26 32 14 17 1018.8 1018.3 0.0
08/05:30pm 27.7 24.5 15.4 47 7.5 SE 26 33 14 18 1018.8 1018.3 0.0
08/05:00pm 28.9 25.1 14.7 42 8.6 SE 28 35 15 19 1018.8 1018.3 0.0
08/04:30pm 29.8 25.1 14.4 39 9.4 SE 32 37 17 20 1018.9 1018.4 0.0
08/04:00pm 30.7 26.2 14.8 38 9.8 SE 32 41 17 22 1018.9 1018.4 0.0
08/03:30pm 31.0 26.8 14.6 37 10.1 ESE 30 39 16 21 1019.1 1018.6 0.0
08/03:00pm 31.6 27.6 15.1 36 10.2 SE 30 39 16 21 1019.2 1018.7 0.0
08/02:30pm 32.0 27.8 14.6 34 10.7 SE 30 37 16 20 1019.5 1019.0 0.0
08/02:00pm 32.9 29.3 9.7 24 13.3 SE 19 28 10 15 1019.9 1019.4 0.0
08/01:30pm 32.9 30.0 9.7 24 13.3 ESE 15 24 8 13 1020.3 1019.8 0.0
08/01:00pm 32.1 30.1 10.2 26 12.6 E 11 22 6 12 1020.5 1020.0 0.0
08/12:30pm 31.6 27.8 9.2 25 12.7 E 19 30 10 16 1020.9 1020.4 0.0
08/12:00pm 32.0 29.7 11.7 28 11.9 NE 15 24 8 13 1021.1 1020.6 0.0
08/11:30am 30.8 28.6 10.7 29 11.6 ENE 13 20 7 11 1021.5 1021.0 0.0
08/11:00am 29.5 26.9 10.6 31 10.8 NE 15 22 8 12 1022.0 1021.5 0.0
08/10:30am 28.2 25.4 11.3 35 9.7 NNE 17 28 9 15 1022.5 1022.0 0.0
08/10:00am 28.0 25.9 12.4 38 9.1 NE 15 20 8 11 1022.6 1022.1 0.0
08/09:30am 26.4 23.6 12.5 42 8.1 NNE 19 28 10 15 1022.8 1022.3 0.0
08/09:00am 24.3 22.1 13.2 50 6.5 NE 17 24 9 13 1022.9 1022.4 0.0
08/08:30am 23.1 21.5 13.8 55 5.5 NE 15 22 8 12 1023.2 1022.7 0.0
08/08:00am 21.6 20.1 13.2 59 4.8 NE 13 19 7 10 1023.4 1022.9 0.0
08/07:30am 20.1 17.6 13.6 66 3.7 NE 19 28 10 15 1023.3 1022.8 0.0
08/07:00am 18.8 15.9 14.1 74 2.7 NNE 22 30 12 16 1022.9 1022.4 0.0
08/06:30am 17.4 14.5 14.1 81 1.9 NNE 22 32 12 17 1022.7 1022.2 0.0
08/06:00am 16.4 13.8 13.9 85 1.4 NNE 20 30 11 16 1022.5 1022.0 0.0
08/05:30am 15.9 13.5 13.7 87 1.2 NNE 19 26 10 14 1022.3 1021.8 0.0
08/05:00am 16.1 13.7 13.8 86 1.3 NNE 19 28 10 15 1022.0 1021.5 0.0
08/04:30am 16.2 13.8 13.7 85 1.4 NNE 19 24 10 13 1021.8 1021.3 0.0
08/04:00am 16.2 14.1 13.7 85 1.4 NNE 17 24 9 13 1021.7 1021.2 0.0
08/03:30am 16.3 14.3 13.8 85 1.4 NNE 17 24 9 13 1021.6 1021.1 0.0
08/03:00am 16.6 14.2 13.9 84 1.5 NE 19 26 10 14 1021.5 1021.0 0.0
08/02:30am 16.9 14.5 13.8 82 1.8 NE 19 26 10 14 1021.4 1020.9 0.0
08/02:00am 17.1 15.1 13.8 81 1.9 NE 17 26 9 14 1021.4 1020.9 0.0
08/01:30am 17.4 15.7 13.7 79 2.1 NE 15 24 8 13 1021.6 1021.1 0.0
08/01:00am 17.7 15.5 13.4 76 2.4 NE 17 26 9 14 1021.7 1021.2 0.0
08/12:30am 18.0 16.2 13.3 74 2.7 NE 15 24 8 13 1021.9 1021.4 0.0
08/12:00am 18.3 16.5 13.4 73 2.8 NE 15 20 8 11 1022.0 1021.5 0.0
 
Date/Time
WST
Temp
°C
App
Temp
°C
Dew
Point
Rel
Hum
%
Delta-T
°C
Wind Press
QNH
hPa
Press
MSL
hPa
Rain
since 9 am
mm
Dir
 
Spd
km/h
Gust
km/h
Spd
kts
Gust
kts
07/11:30pm 18.7 16.6 13.6 72 2.9 NE 17 28 9 15 1022.1 1021.6 0.0
07/11:00pm 19.1 16.7 13.7 71 3.1 ENE 19 28 10 15 1022.1 1021.6 0.0
07/10:30pm 19.4 17.4 13.8 70 3.2 ENE 17 26 9 14 1022.1 1021.6 0.0
07/10:00pm 19.9 17.9 14.0 69 3.4 ENE 17 26 9 14 1022.1 1021.6 0.0
07/09:30pm 20.4 17.9 14.1 67 3.7 ENE 20 30 11 16 1022.1 1021.6 0.0
07/09:00pm 20.9 18.5 14.3 66 3.9 E 20 30 11 16 1021.8 1021.3 0.0
07/08:30pm 20.8 18.5 14.7 68 3.6 E 20 30 11 16 1021.5 1021.0 0.0
07/08:00pm 20.9 18.3 15.0 69 3.5 E 22 32 12 17 1021.3 1020.8 0.0
07/07:30pm 21.5 19.0 15.1 67 3.8 E 22 30 12 16 1020.9 1020.4 0.0
07/07:00pm 22.2 20.1 15.1 64 4.2 ESE 20 30 11 16 1020.6 1020.1 0.0
07/06:30pm 23.1 20.2 15.2 61 4.7 ESE 24 32 13 17 1020.3 1019.8 0.0
07/06:00pm 24.6 21.7 15.2 55 5.7 SE 24 33 13 18 1020.0 1019.5 0.0
07/05:30pm 25.5 21.6 15.5 54 6.1 SE 30 37 16 20 1019.6 1019.1 0.0
07/05:00pm 26.2 22.1 15.9 53 6.3 SE 32 39 17 21 1019.3 1018.8 0.0
07/04:30pm 27.5 23.3 15.8 48 7.2 SE 32 41 17 22 1019.1 1018.6 0.0
07/04:00pm 27.5 23.2 15.5 48 7.4 SE 32 41 17 22 1019.2 1018.7 0.0
07/03:30pm 28.4 24.7 16.0 47 7.7 SE 30 37 16 20 1019.1 1018.6 0.0
07/03:00pm 28.5 24.2 15.4 45 8.0 SE 32 39 17 21 1019.2 1018.7 0.0
07/02:30pm 28.6 24.3 15.5 45 8.1 SE 32 43 17 23 1019.1 1018.6 0.0
07/02:00pm 27.8 23.5 15.8 48 7.4 SE 33 41 18 22 1019.5 1019.0 0.0
07/01:30pm 28.5 24.7 15.8 46 7.9 SE 30 37 16 20 1019.5 1019.0 0.0
07/01:00pm 29.0 25.5 15.5 44 8.3 SSE 28 35 15 19 1019.5 1019.0 0.0
07/12:30pm 29.5 27.0 14.1 39 9.3 SE 20 32 11 17 1019.8 1019.3 0.0
07/12:00pm 30.5 27.5 10.5 29 11.5 E 17 30 9 16 1020.3 1019.8 0.0
07/11:30am 29.0 26.6 10.2 31 10.7 ENE 13 24 7 13 1020.7 1020.2 0.0
07/11:00am 28.2 26.3 10.4 33 10.1 ESE 11 20 6 11 1020.9 1020.4 0.0
07/10:30am 26.8 24.4 10.1 35 9.4 ENE 13 26 7 14 1021.1 1020.6 0.0
07/10:00am 26.0 24.4 11.7 41 8.2 E 11 22 6 12 1021.4 1020.9 0.0
07/09:30am 24.0 23.2 12.9 50 6.4 ENE 9 15 5 8 1021.6 1021.1 0.0
07/09:00am 22.1 21.3 12.9 56 5.3 NE 9 19 5 10 1021.7 1021.2 0.0
07/08:30am 21.3 20.0 13.7 62 4.4 NE 13 17 7 9 1021.6 1021.1 0.0
07/08:00am 19.3 18.6 14.3 73 2.9 NE 11 19 6 10 1021.6 1021.1 0.0
07/07:35am 17.7 16.9 15.0 84 1.6 ENE 13 19 7 10 1021.6 1021.1 0.0
07/07:30am 17.6 16.8 15.2 86 1.4 ENE 13 17 7 9 1021.7 1021.2 0.0
07/07:17am 16.5 15.7 15.2 92 0.8 E 13 19 7 10 1021.7 1021.2 0.0
07/07:04am 15.6 14.6 14.5 93 0.6 E 13 17 7 9 1021.7 1021.2 0.0
07/07:00am 15.5 14.4 14.4 93 0.6 E 13 17 7 9 1021.6 1021.1 0.0
07/06:52am 15.7 14.7 14.7 94 0.6 E 13 15 7 8 1021.6 1021.1 0.0
07/06:30am 15.0 13.9 14.2 95 0.5 E 13 15 7 8 1021.4 1020.9 0.0
07/06:02am 14.2 13.2 13.4 95 0.4 E 11 17 6 9 1021.0 1020.5 0.0
07/06:01am 14.2 13.2 13.4 95 0.4 E 11 17 6 9 1021.0 1020.5 0.0
07/06:00am 14.2 13.2 13.4 95 0.4 E 11 17 6 9 1021.0 1020.5 0.0
07/05:30am 13.8 12.6 12.9 94 0.5 E 11 15 6 8 1020.5 1020.0 0.0
07/05:00am 13.8 13.0 12.9 94 0.5 E 9 13 5 7 1020.2 1019.7 0.0
07/04:30am 13.9 13.1 13.0 94 0.5 E 9 13 5 7 1019.8 1019.3 0.0
07/04:00am 14.2 13.1 13.1 93 0.6 E 11 15 6 8 1019.5 1019.0 0.0
07/03:30am 14.7 13.8 13.7 94 0.6 E 11 15 6 8 1019.4 1018.9 0.0
07/03:00am 14.6 13.2 13.5 93 0.6 ESE 13 13 7 7 1019.4 1018.9 0.0
07/02:30am 15.1 14.6 13.8 92 0.7 SE 9 13 5 7 1019.3 1018.8 0.0
07/02:00am 15.8 15.1 14.2 90 0.9 E 11 13 6 7 1018.9 1018.4 0.0
07/01:30am 15.4 14.2 13.9 91 0.9 ESE 13 13 7 7 1019.0 1018.5 0.0
07/01:00am 15.4 14.9 13.9 91 0.8 SE 9 13 5 7 1019.0 1018.5 0.0
07/12:30am 16.0 15.4 14.5 91 0.9 ESE 11 13 6 7 1019.0 1018.5 0.0
07/12:00am 16.1 15.9 14.8 92 0.7 SE 9 11 5 6 1019.3 1018.8 0.0

Other Formats:

Comma delimited format used in spreadsheet applications
http://www.bom.gov.au/fwo/IDW60801/IDW60801.95638.axf

JavaScript Object Notation format (JSON) in row-major order
http://www.bom.gov.au/fwo/IDW60801/IDW60801.95638.json